createdAt,value
2023-05-15T00:01:03.020Z,100.00
2023-05-15T00:03:29.818Z,100.00
2023-05-15T00:05:57.276Z,100.00
2023-05-15T00:08:23.972Z,100.00
2023-05-15T00:11:00.705Z,100.00
2023-05-15T00:13:28.528Z,100.00
2023-05-15T00:15:55.196Z,100.00
2023-05-15T00:18:21.994Z,100.00
2023-05-15T00:20:48.590Z,100.00
2023-05-15T00:23:15.241Z,100.00
2023-05-15T00:25:42.086Z,100.00
2023-05-15T00:28:08.798Z,100.00
2023-05-15T00:30:35.512Z,100.00
2023-05-15T00:33:02.270Z,100.00
2023-05-15T00:35:28.950Z,100.00
2023-05-15T00:37:55.567Z,100.00
2023-05-15T00:40:23.815Z,100.00
2023-05-15T00:42:51.255Z,100.00
2023-05-15T00:45:18.365Z,100.00
2023-05-15T00:47:45.916Z,100.00
2023-05-15T00:50:12.698Z,100.00
2023-05-15T00:52:39.388Z,100.00
2023-05-15T00:55:06.794Z,100.00
2023-05-15T00:57:33.694Z,100.00
2023-05-15T01:00:01.889Z,100.00
2023-05-15T01:02:28.750Z,100.00
2023-05-15T01:04:55.518Z,100.00
2023-05-15T01:07:22.220Z,100.00
2023-05-15T01:09:49.755Z,100.00
2023-05-15T01:12:17.276Z,100.00
2023-05-15T01:14:43.895Z,100.00
2023-05-15T01:17:10.513Z,100.00
2023-05-15T01:19:37.323Z,100.00
2023-05-15T01:22:22.827Z,100.00
2023-05-15T01:25:08.375Z,100.00
2023-05-15T01:27:37.780Z,100.00
2023-05-15T01:30:26.446Z,100.00
2023-05-15T01:32:53.081Z,100.00
2023-05-15T01:35:52.166Z,100.00
2023-05-15T01:38:21.633Z,100.00
2023-05-15T01:40:49.251Z,100.00
2023-05-15T01:43:18.714Z,100.00
2023-05-15T01:45:45.415Z,100.00
2023-05-15T01:48:13.236Z,100.00
2023-05-15T01:50:41.276Z,100.00
2023-05-15T01:53:09.571Z,100.00
2023-05-15T01:55:37.725Z,100.00
2023-05-15T01:58:05.348Z,100.00
2023-05-15T02:00:32.979Z,100.00
2023-05-15T02:03:00.333Z,100.00
2023-05-15T02:05:27.609Z,100.00
2023-05-15T02:07:55.067Z,100.00
2023-05-15T02:10:22.383Z,100.00
2023-05-15T02:12:49.723Z,100.00
2023-05-15T02:15:17.233Z,100.00
2023-05-15T02:17:43.968Z,100.00
2023-05-15T02:20:10.700Z,100.00
2023-05-15T02:22:37.352Z,100.00
2023-05-15T02:25:04.188Z,100.00
2023-05-15T02:27:42.970Z,100.00
2023-05-15T02:30:12.752Z,100.00
2023-05-15T02:32:59.925Z,100.00
2023-05-15T02:35:37.951Z,100.00
2023-05-15T02:38:08.288Z,100.00
2023-05-15T02:40:36.780Z,100.00
2023-05-15T02:43:04.352Z,100.00
2023-05-15T02:45:31.655Z,100.00
2023-05-15T02:47:59.274Z,100.00
2023-05-15T02:50:26.689Z,100.00
2023-05-15T02:53:01.672Z,100.00
2023-05-15T02:55:28.360Z,100.00
2023-05-15T02:57:54.982Z,100.00
2023-05-15T03:00:21.832Z,100.00
2023-05-15T03:02:48.580Z,100.00
2023-05-15T03:05:15.256Z,100.00
2023-05-15T03:07:42.386Z,100.00
2023-05-15T03:10:09.057Z,100.00
2023-05-15T03:12:36.192Z,100.00
2023-05-15T03:15:02.821Z,100.00
2023-05-15T03:17:29.453Z,100.00
2023-05-15T03:19:56.721Z,100.00
2023-05-15T03:22:23.472Z,100.00
2023-05-15T03:24:50.174Z,100.00
2023-05-15T03:27:16.774Z,100.00
2023-05-15T03:29:43.577Z,100.00
2023-05-15T03:32:10.284Z,100.00
2023-05-15T03:34:37.140Z,100.00
2023-05-15T03:37:04.031Z,100.00
2023-05-15T03:39:30.654Z,100.00
2023-05-15T03:41:57.312Z,100.00
2023-05-15T03:44:23.983Z,100.00
2023-05-15T03:46:50.716Z,100.00
2023-05-15T03:49:17.389Z,100.00
2023-05-15T03:51:44.092Z,100.00
2023-05-15T03:54:11.002Z,100.00
2023-05-15T03:56:37.749Z,100.00
2023-05-15T03:59:04.402Z,100.00
2023-05-15T04:01:31.121Z,100.00
2023-05-15T04:03:57.907Z,100.00
2023-05-15T04:06:24.555Z,100.00
2023-05-15T04:08:51.314Z,100.00
2023-05-15T04:11:18.629Z,100.00
2023-05-15T04:13:45.291Z,100.00
2023-05-15T04:16:11.950Z,100.00
2023-05-15T04:18:39.848Z,100.00
2023-05-15T04:21:06.569Z,100.00
2023-05-15T04:23:33.239Z,100.00
2023-05-15T04:25:59.992Z,100.00
2023-05-15T04:30:53.660Z,100.00
2023-05-15T04:33:20.346Z,100.00
2023-05-15T04:35:48.271Z,100.00
2023-05-15T04:38:15.003Z,100.00
2023-05-15T04:40:41.720Z,100.00
2023-05-15T04:43:08.543Z,100.00
2023-05-15T04:45:35.412Z,100.00
2023-05-15T04:48:02.075Z,100.00
2023-05-15T04:50:28.717Z,100.00
2023-05-15T04:52:55.434Z,100.00
2023-05-15T04:55:22.139Z,100.00
2023-05-15T04:57:48.891Z,100.00
2023-05-15T05:00:15.803Z,100.00
2023-05-15T05:02:45.500Z,100.00
2023-05-15T05:05:14.805Z,100.00
2023-05-15T05:07:42.612Z,100.00
2023-05-15T05:10:09.615Z,100.00
2023-05-15T05:12:36.211Z,100.00
2023-05-15T05:15:02.882Z,100.00
2023-05-15T05:17:29.887Z,100.00
2023-05-15T05:19:56.621Z,100.00
2023-05-15T05:22:23.197Z,100.00
2023-05-15T05:24:49.869Z,100.00
2023-05-15T05:27:16.520Z,100.00
2023-05-15T05:29:43.168Z,100.00
2023-05-15T05:32:09.812Z,100.00
2023-05-15T05:34:36.551Z,100.00
2023-05-15T05:37:03.331Z,100.00
2023-05-15T05:39:30.087Z,100.00
2023-05-15T05:41:56.828Z,100.00
2023-05-15T05:44:23.499Z,100.00
2023-05-15T05:46:51.597Z,100.00
2023-05-15T05:49:18.343Z,100.00
2023-05-15T05:51:46.642Z,100.00
2023-05-15T05:54:15.215Z,100.00
2023-05-15T05:56:42.617Z,100.00
2023-05-15T05:59:09.426Z,100.00
2023-05-15T06:01:36.500Z,100.00
2023-05-15T06:04:03.282Z,100.00
2023-05-15T06:06:30.229Z,100.00
2023-05-15T06:08:57.379Z,100.00
2023-05-15T06:11:25.576Z,100.00
2023-05-15T06:13:52.897Z,100.00
2023-05-15T06:16:19.825Z,98.08
2023-05-15T06:18:46.672Z,95.75
2023-05-15T06:21:13.353Z,94.92
2023-05-15T06:23:40.050Z,95.00
2023-05-15T06:26:06.936Z,100.00
2023-05-15T06:28:33.642Z,93.26
2023-05-15T06:31:00.435Z,97.13
2023-05-15T06:33:27.127Z,91.83
2023-05-15T06:35:53.791Z,88.67
2023-05-15T06:38:20.536Z,87.03
2023-05-15T06:40:47.569Z,86.63
2023-05-15T06:43:14.212Z,88.87
2023-05-15T06:45:40.981Z,81.53
2023-05-15T06:48:07.641Z,81.92
2023-05-15T06:50:34.288Z,82.98
2023-05-15T06:53:01.461Z,82.52
2023-05-15T06:55:28.260Z,79.36
2023-05-15T06:57:55.014Z,81.11
2023-05-15T07:00:21.739Z,83.77
2023-05-15T07:02:48.412Z,84.28
2023-05-15T07:05:15.289Z,81.87
2023-05-15T07:07:42.906Z,82.25
2023-05-15T07:10:09.697Z,80.92
2023-05-15T07:12:36.426Z,83.62
2023-05-15T07:15:03.237Z,82.16
2023-05-15T07:17:31.338Z,80.79
2023-05-15T07:19:58.149Z,77.12
2023-05-15T07:22:26.964Z,78.77
2023-05-15T07:24:53.709Z,79.25
2023-05-15T07:27:20.316Z,79.64
2023-05-15T07:29:47.007Z,81.32
2023-05-15T07:32:13.674Z,79.05
2023-05-15T07:34:40.483Z,79.62
2023-05-15T07:37:07.179Z,77.94
2023-05-15T07:39:33.852Z,80.15
2023-05-15T07:42:00.986Z,78.80
2023-05-15T07:44:27.568Z,84.98
2023-05-15T07:46:55.451Z,83.26
2023-05-15T07:49:22.188Z,78.20
2023-05-15T07:51:48.840Z,81.36
2023-05-15T07:54:15.969Z,82.16
2023-05-15T07:56:42.806Z,87.16
2023-05-15T07:59:09.754Z,78.45
2023-05-15T08:01:36.921Z,80.36
2023-05-15T08:04:06.059Z,81.13
2023-05-15T08:06:33.250Z,80.84
2023-05-15T08:09:00.055Z,79.12
2023-05-15T08:11:26.932Z,78.08
2023-05-15T08:13:53.702Z,76.01
2023-05-15T08:16:20.574Z,77.98
2023-05-15T08:18:47.963Z,76.02
2023-05-15T08:23:41.398Z,78.05
2023-05-15T08:26:08.073Z,79.27
2023-05-15T08:28:34.743Z,77.79
2023-05-15T08:31:01.445Z,76.42
2023-05-15T08:33:28.146Z,75.86
2023-05-15T08:35:54.942Z,71.56
2023-05-15T08:38:22.728Z,73.01
2023-05-15T08:40:51.018Z,78.70
2023-05-15T08:43:18.468Z,75.31
2023-05-15T08:45:45.289Z,72.91
2023-05-15T08:48:14.215Z,78.77
2023-05-15T08:50:41.772Z,75.82
2023-05-15T08:53:08.471Z,76.08
2023-05-15T08:55:35.483Z,75.41
2023-05-15T08:58:02.633Z,74.34
2023-05-15T09:00:30.389Z,76.56
2023-05-15T09:03:03.722Z,79.15
2023-05-15T09:05:30.560Z,73.57
2023-05-15T09:07:59.242Z,76.16
2023-05-15T09:10:25.920Z,74.64
2023-05-15T09:12:53.610Z,76.50
2023-05-15T09:15:23.500Z,78.12
2023-05-15T09:17:50.781Z,78.41
2023-05-15T09:20:33.772Z,81.21
2023-05-15T09:23:01.556Z,76.21
2023-05-15T09:25:44.988Z,78.98
2023-05-15T09:28:24.890Z,76.85
2023-05-15T09:30:56.904Z,77.04
2023-05-15T09:33:28.122Z,72.53
2023-05-15T09:35:54.762Z,72.95
2023-05-15T09:38:21.921Z,69.95
2023-05-15T09:40:48.658Z,75.20
2023-05-15T09:43:16.255Z,76.98
2023-05-15T09:45:43.322Z,69.12
2023-05-15T09:48:12.122Z,70.29
2023-05-15T09:50:39.813Z,68.49
2023-05-15T09:53:06.702Z,74.38
2023-05-15T09:55:36.398Z,71.14
2023-05-15T09:58:06.629Z,70.36
2023-05-15T10:00:33.860Z,72.58
2023-05-15T10:03:04.451Z,73.64
2023-05-15T10:05:43.135Z,72.39
2023-05-15T10:08:10.869Z,69.35
2023-05-15T10:10:37.548Z,71.30
2023-05-15T10:13:06.112Z,70.46
2023-05-15T10:15:33.422Z,66.24
2023-05-15T10:18:01.559Z,62.82
2023-05-15T10:20:28.402Z,61.46
2023-05-15T10:22:56.483Z,60.62
2023-05-15T10:25:26.112Z,61.45
2023-05-15T10:27:53.034Z,58.40
2023-05-15T10:30:20.269Z,56.88
2023-05-15T10:32:48.991Z,60.93
2023-05-15T10:35:16.791Z,59.25
2023-05-15T10:37:45.480Z,57.54
2023-05-15T10:40:13.181Z,58.20
2023-05-15T10:42:41.788Z,61.23
2023-05-15T10:45:09.081Z,61.29
2023-05-15T10:47:36.685Z,59.18
2023-05-15T10:50:04.747Z,59.29
2023-05-15T10:52:36.460Z,58.21
2023-05-15T10:55:06.019Z,62.54
2023-05-15T10:57:32.872Z,55.56
2023-05-15T10:59:59.628Z,56.41
2023-05-15T11:02:29.677Z,59.83
2023-05-15T11:04:56.595Z,57.29
2023-05-15T11:07:24.446Z,61.01
2023-05-15T11:09:51.752Z,60.53
2023-05-15T11:12:18.708Z,56.20
2023-05-15T11:14:57.433Z,60.21
2023-05-15T11:17:24.619Z,63.03
2023-05-15T11:19:51.663Z,60.99
2023-05-15T11:22:18.594Z,60.73
2023-05-15T11:24:53.232Z,63.34
2023-05-15T11:27:21.294Z,63.89
2023-05-15T11:30:03.491Z,67.68
2023-05-15T11:32:48.912Z,64.71
2023-05-15T11:35:18.491Z,65.29
2023-05-15T11:37:48.175Z,63.78
2023-05-15T11:40:18.901Z,63.43
2023-05-15T11:43:05.199Z,58.36
2023-05-15T11:45:36.652Z,62.10
2023-05-15T11:48:04.748Z,54.82
2023-05-15T11:50:33.364Z,56.46
2023-05-15T11:53:04.715Z,58.51
2023-05-15T11:55:32.699Z,59.89
2023-05-15T11:57:59.699Z,58.88
2023-05-15T12:00:26.802Z,59.52
2023-05-15T12:02:54.055Z,57.47
2023-05-15T12:05:21.180Z,57.30
2023-05-15T12:07:48.022Z,57.90
2023-05-15T12:10:15.222Z,61.79
2023-05-15T12:12:44.955Z,60.49
2023-05-15T12:15:15.316Z,55.93
2023-05-15T12:17:42.210Z,50.57
2023-05-15T12:20:11.056Z,50.46
2023-05-15T12:22:44.351Z,54.02
2023-05-15T12:25:11.825Z,57.06
2023-05-15T12:27:39.710Z,55.69
2023-05-15T12:30:07.288Z,54.81
2023-05-15T12:32:34.857Z,48.87
2023-05-15T12:35:02.099Z,49.33
2023-05-15T12:37:31.415Z,48.03
2023-05-15T12:40:00.524Z,48.19
2023-05-15T12:42:27.497Z,48.14
2023-05-15T12:44:54.928Z,46.74
2023-05-15T12:47:30.843Z,48.40
2023-05-15T12:49:58.219Z,47.25
2023-05-15T12:52:28.269Z,45.51
2023-05-15T12:54:54.984Z,49.25
2023-05-15T12:57:21.674Z,47.13
2023-05-15T12:59:48.705Z,48.21
2023-05-15T13:02:17.449Z,47.04
2023-05-15T13:04:46.412Z,44.91
2023-05-15T13:07:16.838Z,45.65
2023-05-15T13:09:43.565Z,46.83
2023-05-15T13:12:12.205Z,50.86
2023-05-15T13:14:38.951Z,47.53
2023-05-15T13:17:06.174Z,49.63
2023-05-15T13:19:32.969Z,50.28
2023-05-15T13:22:00.401Z,48.25
2023-05-15T13:24:27.201Z,46.46
2023-05-15T13:26:54.048Z,49.47
2023-05-15T13:29:20.875Z,50.66
2023-05-15T13:31:47.754Z,49.13
2023-05-15T13:34:14.459Z,48.67
2023-05-15T13:36:41.253Z,46.49
2023-05-15T13:39:07.992Z,46.49
2023-05-15T13:41:35.872Z,47.80
2023-05-15T13:44:02.524Z,48.84
2023-05-15T13:46:29.200Z,48.84
2023-05-15T13:48:55.948Z,54.67
2023-05-15T13:51:22.855Z,58.14
2023-05-15T13:53:49.727Z,61.94
2023-05-15T13:56:16.787Z,68.70
2023-05-15T13:58:43.748Z,72.79
2023-05-15T14:01:10.442Z,68.81
2023-05-15T14:03:37.356Z,68.89
2023-05-15T14:06:04.273Z,70.43
2023-05-15T14:08:30.963Z,70.88
2023-05-15T14:10:57.595Z,73.57
2023-05-15T14:13:24.539Z,73.79
2023-05-15T14:15:51.393Z,74.45
2023-05-15T14:18:18.151Z,71.11
2023-05-15T14:20:44.894Z,73.68
2023-05-15T14:23:11.594Z,69.05
2023-05-15T14:25:38.276Z,69.38
2023-05-15T14:28:04.979Z,73.75
2023-05-15T14:30:31.597Z,70.11
2023-05-15T14:32:58.345Z,65.79
2023-05-15T14:35:25.090Z,66.15
2023-05-15T14:37:51.781Z,65.41
2023-05-15T14:40:18.506Z,68.48
2023-05-15T14:42:45.183Z,60.57
2023-05-15T14:45:11.885Z,57.27
2023-05-15T14:47:38.727Z,64.91
2023-05-15T14:50:05.642Z,66.08
2023-05-15T14:52:32.378Z,63.07
2023-05-15T14:55:08.482Z,61.21
2023-05-15T14:57:36.438Z,66.26
2023-05-15T15:00:04.833Z,70.18
2023-05-15T15:02:31.562Z,69.17
2023-05-15T15:04:58.501Z,72.10
2023-05-15T15:07:29.202Z,74.18
2023-05-15T15:09:55.903Z,71.97
2023-05-15T15:12:22.596Z,70.04
2023-05-15T15:14:49.302Z,72.20
2023-05-15T15:17:15.956Z,73.63
2023-05-15T15:19:42.787Z,68.94
2023-05-15T15:22:09.435Z,69.12
2023-05-15T15:24:36.171Z,70.87
2023-05-15T15:27:02.787Z,72.54
2023-05-15T15:29:29.468Z,74.18
2023-05-15T15:31:56.149Z,70.44
2023-05-15T15:34:22.817Z,69.82
2023-05-15T15:36:49.497Z,70.94
2023-05-15T15:39:16.545Z,69.24
2023-05-15T15:41:43.219Z,71.75
2023-05-15T15:44:09.860Z,72.85
2023-05-15T15:46:36.509Z,75.57
2023-05-15T15:49:04.627Z,70.35
2023-05-15T15:51:33.326Z,70.35
2023-05-15T15:54:00.010Z,68.17
2023-05-15T15:56:26.643Z,67.78
2023-05-15T15:58:53.342Z,68.28
2023-05-15T16:01:20.033Z,68.75
2023-05-15T16:03:46.817Z,70.73
2023-05-15T16:06:13.472Z,67.77
2023-05-15T16:08:40.145Z,66.37
2023-05-15T16:11:06.803Z,64.80
2023-05-15T16:13:33.464Z,64.49
2023-05-15T16:16:00.125Z,64.46
2023-05-15T16:18:26.888Z,69.30
2023-05-15T16:20:53.633Z,66.08
2023-05-15T16:23:21.388Z,67.74
2023-05-15T16:25:48.217Z,65.25
2023-05-15T16:28:14.981Z,65.49
2023-05-15T16:30:48.808Z,64.96
2023-05-15T16:33:17.907Z,64.01
2023-05-15T16:35:44.775Z,64.42
2023-05-15T16:38:11.810Z,63.92
2023-05-15T16:40:38.517Z,64.58
2023-05-15T16:43:05.539Z,65.56
2023-05-15T16:45:32.210Z,69.08
2023-05-15T16:47:58.903Z,68.33
2023-05-15T16:50:25.988Z,65.52
2023-05-15T16:52:52.836Z,64.33
2023-05-15T16:55:19.779Z,64.75
2023-05-15T16:57:46.858Z,63.12
2023-05-15T17:00:14.389Z,62.44
2023-05-15T17:02:42.269Z,62.33
2023-05-15T17:05:09.967Z,62.82
2023-05-15T17:07:39.658Z,62.82
2023-05-15T17:10:10.181Z,65.70
2023-05-15T17:12:37.436Z,62.62
2023-05-15T17:15:04.620Z,62.70
2023-05-15T17:17:31.380Z,63.95
2023-05-15T17:19:58.972Z,62.78
2023-05-15T17:22:26.577Z,64.36
2023-05-15T17:24:53.262Z,63.49
2023-05-15T17:27:20.132Z,64.63
2023-05-15T17:29:47.469Z,63.24
2023-05-15T17:32:14.403Z,62.58
2023-05-15T17:34:41.257Z,61.98
2023-05-15T17:37:08.215Z,62.23
2023-05-15T17:39:35.153Z,65.73
2023-05-15T17:42:03.463Z,64.99
2023-05-15T17:44:31.324Z,64.03
2023-05-15T17:46:58.579Z,65.05
2023-05-15T17:49:25.382Z,64.41
2023-05-15T17:51:52.627Z,64.53
2023-05-15T17:54:19.251Z,66.59
2023-05-15T17:56:46.093Z,65.32
2023-05-15T17:59:12.780Z,66.35
2023-05-15T18:01:39.697Z,65.98
2023-05-15T18:04:06.422Z,67.48
2023-05-15T18:06:34.405Z,67.58
2023-05-15T18:09:01.613Z,65.67
2023-05-15T18:11:28.373Z,65.59
2023-05-15T18:13:55.225Z,66.18
2023-05-15T18:16:22.049Z,66.46
2023-05-15T18:18:49.617Z,66.59
2023-05-15T18:21:16.401Z,66.62
2023-05-15T18:23:42.994Z,68.06
2023-05-15T18:26:10.381Z,71.10
2023-05-15T18:28:37.253Z,71.43
2023-05-15T18:31:04.012Z,72.09
2023-05-15T18:33:30.651Z,71.10
2023-05-15T18:35:57.327Z,70.65
2023-05-15T18:38:23.973Z,71.98
2023-05-15T18:40:51.864Z,72.68
2023-05-15T18:43:18.637Z,72.51
2023-05-15T18:45:46.527Z,71.62
2023-05-15T18:48:13.222Z,74.54
2023-05-15T18:50:39.887Z,77.10
2023-05-15T18:53:07.380Z,76.43
2023-05-15T18:55:34.153Z,76.82
2023-05-15T18:58:01.002Z,77.67
2023-05-15T19:00:37.812Z,77.98
2023-05-15T19:03:05.987Z,74.86
2023-05-15T19:05:34.395Z,73.27
2023-05-15T19:08:01.620Z,72.48
2023-05-15T19:10:29.838Z,72.98
2023-05-15T19:12:56.941Z,73.40
2023-05-15T19:15:23.639Z,73.70
2023-05-15T19:17:50.381Z,72.84
2023-05-15T19:20:17.114Z,72.32
2023-05-15T19:22:43.702Z,72.56
2023-05-15T19:25:10.698Z,72.52
2023-05-15T19:27:37.775Z,72.60
2023-05-15T19:30:07.061Z,72.96
2023-05-15T19:32:34.589Z,72.24
2023-05-15T19:35:01.906Z,72.04
2023-05-15T19:37:28.647Z,73.41
2023-05-15T19:39:56.559Z,73.27
2023-05-15T19:42:23.269Z,72.84
2023-05-15T19:44:49.895Z,72.94
2023-05-15T19:47:16.623Z,73.23
2023-05-15T19:49:43.237Z,73.53
2023-05-15T19:52:09.848Z,72.94
2023-05-15T19:54:36.464Z,73.29
2023-05-15T19:57:03.191Z,72.70
2023-05-15T19:59:30.036Z,74.14
2023-05-15T20:01:57.016Z,73.42
2023-05-15T20:04:23.791Z,72.88
2023-05-15T20:06:50.638Z,72.88
2023-05-15T20:09:17.700Z,73.07
2023-05-15T20:11:45.306Z,73.25
2023-05-15T20:14:12.020Z,74.40
2023-05-15T20:16:38.783Z,75.21
2023-05-15T20:19:06.675Z,75.98
2023-05-15T20:21:33.442Z,77.10
2023-05-15T20:24:00.201Z,83.20
2023-05-15T20:26:27.268Z,84.91
2023-05-15T20:28:53.846Z,90.89
2023-05-15T20:31:20.573Z,100.00
2023-05-15T20:33:47.175Z,95.86
2023-05-15T20:36:16.857Z,95.33
2023-05-15T20:38:45.030Z,97.09
2023-05-15T20:41:11.851Z,94.02
2023-05-15T20:43:39.220Z,93.73
2023-05-15T20:46:07.944Z,92.03
2023-05-15T20:48:34.640Z,93.23
2023-05-15T20:51:01.299Z,93.01
2023-05-15T20:53:29.105Z,95.67
2023-05-15T20:55:55.781Z,93.43
2023-05-15T20:58:22.389Z,95.15
2023-05-15T21:00:49.096Z,95.53
2023-05-15T21:03:15.860Z,93.71
2023-05-15T21:05:42.594Z,92.63
2023-05-15T21:08:09.287Z,93.36
2023-05-15T21:10:36.030Z,91.53
2023-05-15T21:13:02.730Z,90.32
2023-05-15T21:15:29.406Z,88.07
2023-05-15T21:17:56.184Z,85.07
2023-05-15T21:20:22.843Z,88.46
2023-05-15T21:22:49.465Z,87.12
2023-05-15T21:25:16.542Z,87.53
2023-05-15T21:27:43.206Z,87.31
2023-05-15T21:30:10.091Z,85.73
2023-05-15T21:32:36.830Z,87.14
2023-05-15T21:35:03.722Z,87.51
2023-05-15T21:37:30.850Z,89.03
2023-05-15T21:39:57.567Z,89.55
2023-05-15T21:42:24.215Z,89.50
2023-05-15T21:44:50.919Z,89.28
2023-05-15T21:47:17.559Z,89.58
2023-05-15T21:49:44.173Z,90.09
2023-05-15T21:52:11.018Z,88.73
2023-05-15T21:54:37.725Z,87.77
2023-05-15T21:57:04.499Z,87.65
2023-05-15T21:59:31.100Z,87.97
2023-05-15T22:01:57.811Z,87.34
2023-05-15T22:04:24.515Z,87.78
2023-05-15T22:06:51.358Z,88.29
2023-05-15T22:09:17.997Z,87.34
2023-05-15T22:11:44.690Z,89.68
2023-05-15T22:14:11.297Z,88.57
2023-05-15T22:16:37.956Z,88.47
2023-05-15T22:19:04.640Z,90.87
2023-05-15T22:21:31.906Z,92.30
2023-05-15T22:23:58.799Z,96.85
2023-05-15T22:26:25.681Z,96.21
2023-05-15T22:28:58.303Z,94.43
2023-05-15T22:31:25.104Z,100.00
2023-05-15T22:33:51.883Z,97.08
2023-05-15T22:36:18.612Z,95.33
2023-05-15T22:38:45.328Z,93.05
2023-05-15T22:41:12.007Z,91.46
2023-05-15T22:43:38.721Z,90.15
2023-05-15T22:46:05.534Z,88.98
2023-05-15T22:48:32.808Z,88.48
2023-05-15T22:50:59.590Z,89.10
2023-05-15T22:53:27.228Z,90.68
2023-05-15T22:55:53.930Z,88.12
2023-05-15T22:58:20.531Z,88.89
2023-05-15T23:00:47.236Z,88.66
2023-05-15T23:03:13.949Z,88.92
2023-05-15T23:05:40.750Z,91.09
2023-05-15T23:08:07.470Z,92.09
2023-05-15T23:10:34.066Z,92.37
2023-05-15T23:13:00.767Z,91.63
2023-05-15T23:15:27.489Z,90.33
2023-05-15T23:17:54.208Z,89.30
2023-05-15T23:20:20.881Z,89.19
2023-05-15T23:22:47.529Z,87.45
2023-05-15T23:25:14.186Z,88.95
2023-05-15T23:27:41.028Z,87.68
2023-05-15T23:30:07.992Z,91.00
2023-05-15T23:32:34.726Z,92.30
2023-05-15T23:35:01.390Z,92.26
2023-05-15T23:37:27.987Z,91.65
2023-05-15T23:39:55.447Z,92.18
2023-05-15T23:42:22.985Z,95.17
2023-05-15T23:44:50.196Z,92.78
2023-05-15T23:47:16.889Z,91.68
2023-05-15T23:49:43.806Z,94.92
2023-05-15T23:52:10.725Z,96.67
2023-05-15T23:54:37.391Z,97.07
2023-05-15T23:57:04.162Z,95.03
2023-05-15T23:59:31.243Z,94.59
